Quartz Hill, CA (93536)

8:41 AM PDT on September 02, 2014 (GMT -0700)
KR6C - Quartz Hill (Ave L and 50th W) | Change Station
CLOSE
Current Station
Personal Weather Station
Location: Quartz Hill, CA
Elevation: 2450 ft
Nearby Weather Stations

Elev 2450 ft 34.65 °N, 118.22 °W | Updated 42 seconds ago

Clear
Clear
78.5 °F
Feels Like 78 °F
N
3.0
Wind Variable Wind from NE
Gusts 4.0 mph

Today
High -- | Low -- °F
--% Chance of Precip.
Yesterday
High -- | Low -- °F
Precip. -- in
6:26 AM 7:17 PM
First Quarter, 52% visible
Pressure 29.85 in
Visibility 10.0 miles
Clouds Clear
Heat Index 78 °F
Dew Point 42 °F
Humidity 27%
Rainfall 0.00 in
Snow Depth Not available.
UV 1 out of 12
Pollen 7.00 out of 12
Ozone Good
Flu Activity Not available.
METAR KWJF 021456Z 00000KT 10SM CLR 21/03 A2990 RMK AO2 SLP108 T02110033 51011

More Conditions Fewer Conditions

Pressure 29.85 in
Visibility 10.0 miles
Clouds Clear
Heat Index 78 °F
Dew Point 42 °F
Humidity 27%
Rainfall 0.00 in
Snow Depth Not available.
UV 1 out of 12
Pollen 7.00 out of 12
Ozone Good
Flu Activity Not available.
METAR KWJF 021456Z 00000KT 10SM CLR 21/03 A2990 RMK AO2 SLP108 T02110033 51011

More Conditions Fewer Conditions

10-Day Weather Forecast

Almanac

Astronomy

Sep. 02, 2014 Rise Set
Actual Time 6:26 AM PDT 7:17 PM PDT
Civil Twilight 6:00 AM PDT 7:43 PM PDT
Nautical Twilight 5:30 AM PDT 8:13 PM PDT
Astronomical Twilight 4:59 AM PDT 8:44 PM PDT
Moon 1:58 PM PDT No Moon Set
Length of Visible Light 13h 42m
Length of Day
12h 51m
Tomorrow will be 2m 5s shorter.
First Quarter, 52% of the Moon is Illuminated
Today
First Quarter
Sep 8
Full
Sep 15
Last Quarter
Sep 24
New
Oct 1
First Quarter

Today's Extremes

State Highs State Lows

Community

WunderPhotos

Upload Photos

1,749,705 photos uploaded!

Nearby

Air Quality

  Air Quality AQ Index Pollutant
Yesterday Moderate
OZONE
Yesterday Good
PM10
Current Good
OZONE
Tuesday Good
PM10
Tuesday Good
OZONE
Tuesday Good
CO
Tuesday Good
NO2

Snow Depth

Station Depth Elevation
Leavitt Lake 0 in 9400 ft
Leavitt Meadows 1 in 7200 ft
Sonora Pass 0 in 8800 ft
Summit Meadow 1 in 9122 ft
Monitor Pass 0 in 8350 ft

Earthquake Activity

City Distance Mag. Time & Date
Malibu, California 81 miles 2.5 8:11 AM PDT
2014-08-30
Minimum magnitude displayed is 2.5.

Coastal Water Temperatures

Place Temperature
No Stations Reporting

Nearby Weather Stations